Time;durP1;ratioP1;P1;durP2;ratioP2;P2;SDS_P1;SDS_P2;PMS_P1;PMS_P2;Temp;Humidity;BMP_temperature;BMP_pressure;BME280_temperature;BME280_humidity;BME280_pressure;Samples;Min_cycle;Max_cycle;Signal;HPM_P1;HPM_P2
2022/02/06 00:02:15;;;;;;;5.80;2.77;;;6.30;99.90;;;;;;5048347;28;20210;-74
2022/02/06 00:04:46;;;;;;;3.53;2.43;;;6.30;99.90;;;;;;5046425;28;20199;-73
2022/02/06 00:07:13;;;;;;;6.77;2.83;;;6.20;1.00;;;;;;5034511;28;20247;-73
2022/02/06 00:09:40;;;;;;;3.40;2.20;;;6.20;1.00;;;;;;5039281;28;20195;-73
2022/02/06 00:12:08;;;;;;;4.80;2.50;;;6.20;1.00;;;;;;5041873;28;20214;-73
2022/02/06 00:14:36;;;;;;;5.23;2.97;;;6.20;1.00;;;;;;5049457;28;20219;-73
2022/02/06 00:17:04;;;;;;;4.13;2.50;;;6.20;1.00;;;;;;5030484;28;20611;-73
2022/02/06 00:19:31;;;;;;;2.63;2.30;;;6.20;1.00;;;;;;5045748;28;20256;-73
2022/02/06 00:22:01;;;;;;;5.37;2.53;;;6.10;99.90;;;;;;5033499;28;20277;-73
2022/02/06 00:24:37;;;;;;;4.57;2.50;;;6.10;1.00;;;;;;5030547;28;20499;-73
2022/02/06 00:27:07;;;;;;;6.80;2.50;;;6.10;1.00;;;;;;5034338;28;20217;-73
2022/02/06 00:29:45;;;;;;;2.73;2.43;;;6.00;1.00;;;;;;5049979;28;20207;-73
2022/02/06 00:32:24;;;;;;;6.50;2.60;;;6.00;1.00;;;;;;5051248;28;20225;-73
2022/02/06 00:35:17;;;;;;;5.90;2.50;;;6.10;1.00;;;;;;5053858;28;20230;-73
2022/02/06 00:40:44;;;;;;;4.80;2.57;;;6.00;1.00;;;;;;5050220;28;20303;-73
2022/02/06 00:43:11;;;;;;;3.70;2.40;;;6.00;1.00;;;;;;5034864;28;20285;-73
2022/02/06 00:45:38;;;;;;;4.20;2.80;;;6.00;90.10;;;;;;5068149;23;20234;-69
2022/02/06 00:48:05;;;;;;;4.83;2.70;;;6.00;99.90;;;;;;5072543;28;20208;-69
2022/02/06 00:50:35;;;;;;;5.80;2.83;;;6.00;99.90;;;;;;5074676;28;20245;-69
2022/02/06 00:53:07;;;;;;;6.20;2.53;;;6.00;1.00;;;;;;5074647;28;20198;-70
2022/02/06 00:55:33;;;;;;;5.63;2.57;;;6.00;99.90;;;;;;5074734;28;20443;-69
2022/02/06 00:58:01;;;;;;;4.47;2.80;;;5.90;99.90;;;;;;5075247;28;20216;-69
2022/02/06 01:00:28;;;;;;;5.33;2.80;;;5.90;1.00;;;;;;5074835;28;20202;-69
2022/02/06 01:02:55;;;;;;;4.57;2.67;;;5.90;1.00;;;;;;5073928;28;20586;-69
2022/02/06 01:05:22;;;;;;;5.23;2.97;;;5.90;1.00;;;;;;5073694;28;20573;-69
2022/02/06 01:07:50;;;;;;;6.23;2.90;;;6.00;99.90;;;;;;5074096;28;20632;-69
2022/02/06 01:10:18;;;;;;;3.70;2.60;;;6.00;99.90;;;;;;5073932;28;20201;-69
2022/02/06 01:12:53;;;;;;;6.77;2.73;;;6.00;1.00;;;;;;5074292;28;20306;-69
2022/02/06 01:15:24;;;;;;;6.10;2.63;;;6.00;1.00;;;;;;5062492;28;20671;-69
2022/02/06 01:17:56;;;;;;;3.57;2.40;;;6.00;99.90;;;;;;5074666;28;20250;-69
2022/02/06 01:20:28;;;;;;;3.50;2.80;;;6.00;1.00;;;;;;5074597;28;20210;-69
2022/02/06 01:22:59;;;;;;;4.83;2.53;;;6.00;1.00;;;;;;5074148;28;20202;-69
2022/02/06 01:25:31;;;;;;;8.40;3.00;;;6.00;1.00;;;;;;5073738;28;20667;-69
2022/02/06 01:28:02;;;;;;;3.67;2.50;;;6.10;1.00;;;;;;5074646;28;20249;-69
2022/02/06 01:30:40;;;;;;;4.47;2.40;;;6.10;1.00;;;;;;5074642;28;20660;-69
2022/02/06 01:33:12;;;;;;;6.53;2.40;;;6.00;1.00;;;;;;5073371;28;20655;-69
2022/02/06 01:35:44;;;;;;;3.83;2.83;;;6.00;1.00;;;;;;5074031;28;20913;-69
2022/02/06 01:38:18;;;;;;;7.70;2.93;;;6.00;1.00;;;;;;5073628;28;20201;-69
2022/02/06 01:40:59;;;;;;;4.50;2.40;;;6.00;1.00;;;;;;5071121;28;20198;-69
2022/02/06 01:43:32;;;;;;;4.80;2.70;;;6.10;1.00;;;;;;5073963;28;20640;-69
2022/02/06 01:46:19;;;;;;;7.17;2.90;;;6.10;1.00;;;;;;5073391;28;20210;-69
2022/02/06 01:57:27;;;;;;;4.00;2.30;;;6.10;1.00;;;;;;5073912;28;20585;-70
2022/02/06 02:05:41;;;;;;;7.00;2.90;;;6.20;1.00;;;;;;5073012;28;20684;-70
2022/02/06 02:08:42;;;;;;;3.90;2.20;;;6.20;1.00;;;;;;5060645;28;20198;-70
2022/02/06 02:11:38;;;;;;;2.93;1.80;;;6.20;99.90;;;;;;5072842;28;20215;-70
2022/02/06 02:14:20;;;;;;;6.87;2.10;;;6.20;99.90;;;;;;5058446;28;20226;-70
2022/02/06 02:25:49;;;;;;;2.73;1.93;;;6.30;99.90;;;;;;5062327;28;20560;-70
2022/02/06 02:31:26;;;;;;;2.17;1.50;;;6.30;1.00;;;;;;5036729;28;20201;-70
2022/02/06 02:45:22;;;;;;;3.77;1.50;;;6.20;99.90;;;;;;5071542;28;20690;-70
2022/02/06 02:47:51;;;;;;;4.97;1.90;;;6.20;99.90;;;;;;5071982;28;20202;-70
2022/02/06 02:50:21;;;;;;;2.40;2.00;;;6.20;99.90;;;;;;5072608;28;20662;-70
2022/02/06 02:52:59;;;;;;;1.87;1.50;;;6.20;1.00;;;;;;5072288;28;20207;-70
2022/02/06 02:55:49;;;;;;;3.10;1.80;;;6.10;1.00;;;;;;5072612;28;20627;-70
2022/02/06 02:58:24;;;;;;;1.80;1.53;;;6.20;1.00;;;;;;5071731;28;20202;-70
2022/02/06 03:00:58;;;;;;;3.00;1.50;;;6.20;1.00;;;;;;5072077;28;20198;-70
2022/02/06 03:03:28;;;;;;;3.03;2.07;;;6.20;1.00;;;;;;5072713;28;20573;-70
2022/02/06 03:05:57;;;;;;;4.30;2.00;;;6.20;1.00;;;;;;5072026;28;20198;-70
2022/02/06 03:08:25;;;;;;;2.07;1.80;;;6.20;1.00;;;;;;5071886;28;20198;-70
2022/02/06 03:10:56;;;;;;;1.40;1.30;;;6.20;1.00;;;;;;5072769;28;20667;-70
2022/02/06 03:13:26;;;;;;;2.97;1.67;;;6.30;1.00;;;;;;5071555;28;20206;-70
2022/02/06 03:16:03;;;;;;;2.27;1.47;;;6.30;1.00;;;;;;5071002;28;20681;-70
2022/02/06 03:18:34;;;;;;;3.57;2.00;;;6.30;1.00;;;;;;5072451;28;20213;-70
2022/02/06 03:21:02;;;;;;;2.57;1.57;;;6.30;1.00;;;;;;5072540;28;20284;-71
2022/02/06 03:23:36;;;;;;;2.27;1.67;;;6.40;1.00;;;;;;5071194;28;20255;-70
2022/02/06 03:26:04;;;;;;;2.23;1.60;;;6.40;1.00;;;;;;5071568;28;20198;-70
2022/02/06 03:28:31;;;;;;;3.07;1.70;;;6.40;1.00;;;;;;5072227;28;20285;-70
2022/02/06 03:30:58;;;;;;;1.40;1.27;;;6.40;1.00;;;;;;5071085;28;20202;-70
2022/02/06 03:33:25;;;;;;;1.80;1.67;;;6.50;1.00;;;;;;5071845;28;20209;-70
2022/02/06 03:35:52;;;;;;;1.70;1.53;;;6.50;1.00;;;;;;5071408;28;20683;-70
2022/02/06 03:38:18;;;;;;;2.67;1.53;;;6.50;1.00;;;;;;5071391;28;20213;-70
2022/02/06 03:40:53;;;;;;;2.20;2.00;;;6.50;1.00;;;;;;5071948;28;20301;-70
2022/02/06 03:43:26;;;;;;;2.17;1.77;;;6.60;1.00;;;;;;5069603;28;20277;-70
2022/02/06 03:45:58;;;;;;;2.27;1.90;;;6.60;1.00;;;;;;5070177;28;20212;-70
2022/02/06 03:48:30;;;;;;;2.10;1.90;;;6.60;1.00;;;;;;5071233;28;20205;-70
2022/02/06 03:51:04;;;;;;;2.00;1.80;;;6.60;1.00;;;;;;5071339;28;20194;-70
2022/02/06 03:53:31;;;;;;;4.87;2.03;;;6.60;1.00;;;;;;5071225;28;20217;-70
2022/02/06 03:55:59;;;;;;;3.17;1.80;;;6.60;1.00;;;;;;5071022;28;20300;-70
2022/02/06 03:58:27;;;;;;;2.07;1.87;;;6.60;1.00;;;;;;5071627;28;20208;-70
2022/02/06 04:00:54;;;;;;;2.13;1.80;;;6.60;1.00;;;;;;5071418;28;20293;-70
2022/02/06 04:03:21;;;;;;;3.03;1.90;;;6.60;1.00;;;;;;5070454;28;20195;-70
2022/02/06 04:05:49;;;;;;;1.37;1.27;;;6.60;1.00;;;;;;5070797;28;20640;-70
2022/02/06 04:08:18;;;;;;;2.83;1.77;;;6.60;1.00;;;;;;5072207;28;20202;-70
2022/02/06 04:10:47;;;;;;;3.47;1.97;;;6.60;1.00;;;;;;5071221;28;20210;-70
2022/02/06 04:13:18;;;;;;;2.93;2.03;;;6.60;1.00;;;;;;5072088;28;20209;-70
2022/02/06 04:15:49;;;;;;;2.40;2.20;;;6.60;1.00;;;;;;5070621;28;20703;-70
2022/02/06 04:18:21;;;;;;;4.63;1.80;;;6.60;1.00;;;;;;5070875;28;20201;-70
2022/02/06 04:20:48;;;;;;;2.13;1.57;;;6.70;1.00;;;;;;5070401;28;20214;-70
2022/02/06 04:23:15;;;;;;;5.70;2.10;;;6.70;1.00;;;;;;5070900;28;20198;-70
2022/02/06 04:25:42;;;;;;;2.83;1.90;;;6.70;1.00;;;;;;5071251;28;20206;-70
2022/02/06 04:28:09;;;;;;;2.27;1.60;;;6.60;1.00;;;;;;5071031;28;20221;-70
2022/02/06 04:30:36;;;;;;;1.87;1.67;;;6.70;1.00;;;;;;5071254;28;20202;-70
2022/02/06 04:33:06;;;;;;;1.93;1.80;;;6.70;1.00;;;;;;5071265;28;20660;-70
2022/02/06 04:35:36;;;;;;;3.70;1.60;;;6.70;1.00;;;;;;5071146;28;20216;-70
2022/02/06 04:38:32;;;;;;;3.13;1.90;;;6.70;1.00;;;;;;5071489;28;20647;-70
2022/02/06 04:41:11;;;;;;;2.20;1.90;;;6.70;1.00;;;;;;5071369;28;20243;-70
2022/02/06 04:44:14;;;;;;;2.23;1.70;;;6.70;1.00;;;;;;5070171;28;20208;-70
2022/02/06 04:47:29;;;;;;;1.93;1.40;;;6.70;1.00;;;;;;5070624;28;20288;-70
2022/02/06 04:50:23;;;;;;;2.93;1.70;;;6.70;1.00;;;;;;5066308;28;20205;-70
2022/02/06 05:15:01;;;;;;;1.90;1.80;;;6.80;1.00;;;;;;5049412;28;20316;-70
2022/02/06 05:23:12;;;;;;;1.70;1.60;;;6.80;1.00;;;;;;5065476;28;20287;-69
2022/02/06 05:26:00;;;;;;;3.70;1.90;;;6.70;1.00;;;;;;5057905;28;20542;-69
2022/02/06 05:28:35;;;;;;;1.70;1.60;;;6.80;1.00;;;;;;5074149;28;20203;-69
2022/02/06 05:31:05;;;;;;;1.70;1.60;;;6.80;1.00;;;;;;5074557;28;20212;-69
2022/02/06 05:33:34;;;;;;;1.70;1.57;;;6.80;1.00;;;;;;5068571;28;20592;-69
2022/02/06 05:36:02;;;;;;;2.57;1.80;;;6.80;1.00;;;;;;5069708;28;20214;-69
2022/02/06 05:38:31;;;;;;;2.20;1.37;;;6.90;1.00;;;;;;5070841;28;20729;-69
2022/02/06 05:40:58;;;;;;;1.97;1.60;;;6.90;1.00;;;;;;5070209;28;20656;-69
2022/02/06 05:43:24;;;;;;;3.53;2.13;;;6.90;1.00;;;;;;5070623;28;20210;-69
2022/02/06 05:45:51;;;;;;;1.47;1.37;;;6.90;1.00;;;;;;5072223;28;20240;-69
2022/02/06 05:48:19;;;;;;;2.17;1.23;;;7.00;1.00;;;;;;5069332;28;20202;-69
2022/02/06 05:50:46;;;;;;;3.23;1.30;;;7.00;1.00;;;;;;5071815;28;20221;-69
2022/02/06 05:53:13;;;;;;;2.20;1.13;;;7.00;1.00;;;;;;5073361;28;20202;-69
2022/02/06 05:55:43;;;;;;;2.20;2.00;;;7.00;1.00;;;;;;5071849;28;20214;-69
2022/02/06 05:58:10;;;;;;;1.37;1.27;;;7.00;1.00;;;;;;5070631;28;20202;-69
2022/02/06 06:00:37;;;;;;;1.50;1.40;;;7.10;99.90;;;;;;5070525;28;20225;-69
2022/02/06 06:03:06;;;;;;;3.60;1.70;;;7.10;1.00;;;;;;5072129;28;20207;-69
2022/02/06 06:05:33;;;;;;;1.73;1.57;;;7.10;1.00;;;;;;5069453;28;20229;-69
2022/02/06 06:08:00;;;;;;;2.30;1.40;;;7.10;1.00;;;;;;5069641;28;20208;-70
2022/02/06 06:10:27;;;;;;;1.90;1.60;;;7.10;1.00;;;;;;5070475;28;20210;-75
2022/02/06 06:12:55;;;;;;;1.83;1.50;;;7.10;1.00;;;;;;5069122;28;20216;-71
2022/02/06 06:15:23;;;;;;;1.87;1.63;;;7.20;99.90;;;;;;5071767;28;20313;-71
2022/02/06 06:17:50;;;;;;;1.60;1.50;;;7.20;99.90;;;;;;5072079;28;20664;-71
2022/02/06 06:20:19;;;;;;;2.33;1.47;;;7.20;99.90;;;;;;5068638;28;20206;-71
2022/02/06 06:22:47;;;;;;;1.30;1.23;;;7.10;1.00;;;;;;5072436;28;20206;-71
2022/02/06 06:25:14;;;;;;;3.80;1.27;;;7.20;1.00;;;;;;5072519;28;20198;-71
2022/02/06 06:27:41;;;;;;;1.50;1.40;;;7.20;99.90;;;;;;5070957;28;20198;-71
2022/02/06 06:30:10;;;;;;;1.73;1.50;;;7.20;99.90;;;;;;5072722;28;20561;-70
2022/02/06 06:32:37;;;;;;;2.63;1.60;;;7.10;1.00;;;;;;5067846;28;20245;-71
2022/02/06 06:35:06;;;;;;;1.60;1.50;;;7.10;1.00;;;;;;5071255;28;20206;-71
2022/02/06 06:37:37;;;;;;;1.53;1.43;;;7.10;1.00;;;;;;5071285;28;20213;-71
2022/02/06 06:40:07;;;;;;;1.53;1.30;;;7.10;1.00;;;;;;5069499;28;20202;-71
2022/02/06 06:42:33;;;;;;;2.03;1.83;;;7.10;1.00;;;;;;5069412;28;20209;-71
2022/02/06 06:45:00;;;;;;;1.67;1.23;;;7.10;99.90;;;;;;5069341;28;20673;-71
2022/02/06 06:47:28;;;;;;;1.60;1.50;;;7.10;99.90;;;;;;5070242;28;20548;-71
2022/02/06 06:49:56;;;;;;;2.60;1.33;;;7.10;1.00;;;;;;5069155;28;20702;-71
2022/02/06 06:52:23;;;;;;;1.40;1.30;;;7.10;1.00;;;;;;5064359;28;20210;-71
2022/02/06 06:54:59;;;;;;;2.17;1.53;;;7.10;1.00;;;;;;5070869;28;20203;-71
2022/02/06 06:57:29;;;;;;;3.10;1.80;;;7.00;1.00;;;;;;5070329;28;20213;-71
2022/02/06 07:00:21;;;;;;;1.40;1.30;;;7.00;1.00;;;;;;5071641;28;20202;-71
2022/02/06 07:02:50;;;;;;;2.03;1.40;;;7.00;1.00;;;;;;5069449;28;20220;-71
2022/02/06 07:05:17;;;;;;;1.47;0.90;;;7.10;1.00;;;;;;5067957;28;20206;-71
2022/02/06 07:07:44;;;;;;;1.13;1.03;;;7.10;1.00;;;;;;5071446;28;20222;-71
2022/02/06 07:10:11;;;;;;;2.73;1.07;;;7.10;99.90;;;;;;5070697;28;20217;-71
2022/02/06 07:12:38;;;;;;;1.40;0.70;;;7.10;99.90;;;;;;5070169;28;20232;-71
2022/02/06 07:15:05;;;;;;;1.10;1.00;;;7.10;99.90;;;;;;5068653;28;20212;-71
2022/02/06 07:17:32;;;;;;;1.33;1.17;;;7.10;99.90;;;;;;5071024;28;20208;-71
2022/02/06 07:20:02;;;;;;;1.23;0.97;;;7.10;1.00;;;;;;5070195;28;20210;-71
2022/02/06 07:22:34;;;;;;;1.73;1.20;;;7.00;1.00;;;;;;5067200;28;20641;-71
2022/02/06 07:25:01;;;;;;;2.33;1.40;;;7.00;1.00;;;;;;5065970;28;20206;-71
2022/02/06 07:27:31;;;;;;;1.20;1.20;;;7.00;1.00;;;;;;5069917;28;20306;-71
2022/02/06 07:29:58;;;;;;;1.40;1.10;;;7.10;99.90;;;;;;5071011;28;20203;-71
2022/02/06 07:32:25;;;;;;;1.17;1.07;;;7.10;99.90;;;;;;5069565;28;20579;-70
2022/02/06 07:34:52;;;;;;;1.70;1.60;;;7.10;1.00;;;;;;5069795;28;20206;-70
2022/02/06 07:37:21;;;;;;;2.10;1.10;;;7.20;1.00;;;;;;5069056;28;20249;-72
2022/02/06 07:39:48;;;;;;;0.97;0.97;;;7.10;1.00;;;;;;5070034;28;20490;-71
2022/02/06 07:42:15;;;;;;;1.50;1.10;;;7.10;1.00;;;;;;5070435;28;20248;-78
2022/02/06 07:44:46;;;;;;;1.50;1.20;;;7.20;1.00;;;;;;5067234;28;20214;-71
2022/02/06 07:47:15;;;;;;;1.67;1.40;;;7.20;1.00;;;;;;5064779;28;20202;-71
2022/02/06 07:49:45;;;;;;;1.60;1.07;;;7.20;1.00;;;;;;5068049;28;20210;-72
2022/02/06 07:52:13;;;;;;;1.70;1.13;;;7.20;1.00;;;;;;5068459;28;20210;-72
2022/02/06 07:54:41;;;;;;;1.27;1.13;;;7.10;1.00;;;;;;5062155;28;20765;-72
2022/02/06 07:57:08;;;;;;;1.63;1.40;;;7.20;1.00;;;;;;5064919;28;20680;-72
2022/02/06 07:59:36;;;;;;;3.00;1.07;;;7.10;1.00;;;;;;5065026;28;20238;-73
2022/02/06 08:02:05;;;;;;;1.90;1.30;;;7.20;1.00;;;;;;5066857;28;20202;-72
2022/02/06 08:04:31;;;;;;;1.53;1.20;;;7.20;1.00;;;;;;5061025;28;20210;-72
2022/02/06 08:06:59;;;;;;;0.80;0.80;;;7.20;1.00;;;;;;5066589;28;20587;-72
2022/02/06 08:09:41;;;;;;;1.77;1.40;;;7.20;1.00;;;;;;5066133;28;20202;-72
2022/02/06 08:12:11;;;;;;;1.20;1.10;;;7.30;1.00;;;;;;5065322;28;20670;-72
2022/02/06 08:14:51;;;;;;;1.57;1.17;;;7.30;1.00;;;;;;5065680;28;20555;-72
2022/02/06 08:17:22;;;;;;;1.37;0.90;;;7.30;1.00;;;;;;5064342;28;20638;-72
2022/02/06 08:19:49;;;;;;;2.30;1.20;;;7.40;1.00;;;;;;5064193;28;20214;-75
2022/02/06 08:22:16;;;;;;;1.03;1.00;;;7.40;1.00;;;;;;5065585;28;20210;-75
2022/02/06 08:24:47;;;;;;;1.60;1.50;;;7.40;1.00;;;;;;5065378;28;20213;-75
2022/02/06 08:27:15;;;;;;;1.50;1.40;;;7.50;1.00;;;;;;5062573;28;20205;-75
2022/02/06 08:29:45;;;;;;;1.57;1.47;;;7.40;1.00;;;;;;5066202;28;20206;-77
2022/02/06 08:32:12;;;;;;;1.57;1.07;;;7.40;1.00;;;;;;5062739;28;20199;-76
2022/02/06 08:34:41;;;;;;;4.03;1.73;;;7.40;1.00;;;;;;5058923;28;20293;-76
2022/02/06 08:37:08;;;;;;;1.63;1.20;;;7.50;1.00;;;;;;5065590;28;20222;-75
2022/02/06 08:39:36;;;;;;;1.70;1.40;;;7.50;1.00;;;;;;5065140;28;20225;-75
2022/02/06 08:42:06;;;;;;;2.47;1.43;;;7.50;1.00;;;;;;5066032;28;20225;-76
2022/02/06 08:44:35;;;;;;;1.30;1.20;;;7.50;1.00;;;;;;5064976;28;20668;-75
2022/02/06 08:47:02;;;;;;;2.63;1.20;;;7.50;1.00;;;;;;5065330;28;20198;-77
2022/02/06 08:49:29;;;;;;;2.80;1.30;;;7.60;1.00;;;;;;5066765;28;20595;-76
2022/02/06 08:51:56;;;;;;;2.67;1.13;;;7.60;1.00;;;;;;5068963;28;20616;-76
2022/02/06 08:54:27;;;;;;;2.47;1.40;;;7.60;1.00;;;;;;5069512;28;20206;-75
2022/02/06 08:57:00;;;;;;;1.30;1.20;;;7.70;1.00;;;;;;5067889;28;20371;-76
2022/02/06 08:59:27;;;;;;;1.40;1.33;;;7.70;1.00;;;;;;5072431;28;20309;-76
2022/02/06 09:01:55;;;;;;;1.40;1.30;;;7.70;1.00;;;;;;5074070;28;20203;-76
2022/02/06 09:04:22;;;;;;;1.90;1.67;;;7.70;1.00;;;;;;5070842;28;20204;-76
2022/02/06 09:06:49;;;;;;;1.20;1.10;;;7.80;1.00;;;;;;5070741;28;20203;-76
2022/02/06 09:09:16;;;;;;;1.27;1.17;;;7.80;1.00;;;;;;5072425;28;20225;-76
2022/02/06 09:11:45;;;;;;;1.13;1.00;;;7.90;99.90;;;;;;5070901;28;20211;-76
2022/02/06 09:14:13;;;;;;;1.30;1.20;;;7.90;1.00;;;;;;5073103;28;20203;-76
2022/02/06 09:16:40;;;;;;;2.00;1.33;;;7.90;1.00;;;;;;5071862;28;20249;-76
2022/02/06 09:19:10;;;;;;;1.00;0.90;;;7.90;1.00;;;;;;5067743;28;20225;-76
2022/02/06 09:21:36;;;;;;;1.03;1.03;;;7.90;1.00;;;;;;5071385;28;20296;-76
2022/02/06 09:24:04;;;;;;;3.27;1.20;;;7.90;1.00;;;;;;5071747;28;20206;-76
2022/02/06 09:26:30;;;;;;;1.43;1.33;;;7.90;1.00;;;;;;5072423;28;20281;-75
2022/02/06 09:28:57;;;;;;;2.17;1.60;;;7.90;1.00;;;;;;5072462;28;20641;-76
2022/02/06 09:31:26;;;;;;;1.30;1.20;;;7.90;1.00;;;;;;5069861;28;20208;-75
2022/02/06 09:36:20;;;;;;;3.73;1.27;;;7.90;1.00;;;;;;5070299;28;20314;-76
2022/02/06 09:38:47;;;;;;;1.43;1.00;;;7.90;1.00;;;;;;5072549;28;20198;-76
2022/02/06 09:41:14;;;;;;;1.50;1.40;;;7.90;1.00;;;;;;5073216;28;20656;-76
2022/02/06 09:43:43;;;;;;;2.40;1.13;;;7.80;1.00;;;;;;5072146;28;20198;-75
2022/02/06 09:46:12;;;;;;;1.17;1.00;;;7.80;1.00;;;;;;5070973;28;20586;-75
2022/02/06 09:48:41;;;;;;;2.50;1.10;;;7.80;1.00;;;;;;5072203;28;20198;-75
2022/02/06 09:51:09;;;;;;;1.77;0.90;;;7.80;1.00;;;;;;5070596;28;20684;-76
2022/02/06 09:53:39;;;;;;;2.03;0.70;;;7.80;1.00;;;;;;5072770;28;20222;-76
2022/02/06 09:56:11;;;;;;;0.63;0.63;;;7.80;1.00;;;;;;5069316;28;20209;-75
2022/02/06 09:58:59;;;;;;;0.80;0.80;;;7.80;1.00;;;;;;5071514;28;20289;-76
2022/02/06 10:01:27;;;;;;;0.93;0.80;;;7.70;1.00;;;;;;5072508;28;20229;-73
2022/02/06 10:04:02;;;;;;;1.17;0.53;;;7.70;1.00;;;;;;5068567;28;20206;-74
2022/02/06 10:06:36;;;;;;;3.20;0.60;;;7.70;1.00;;;;;;5070720;28;20206;-74
2022/02/06 10:09:05;;;;;;;0.57;0.57;;;7.70;1.00;;;;;;5069343;28;20681;-74
2022/02/06 10:11:35;;;;;;;0.60;0.60;;;7.70;99.90;;;;;;5063129;28;20202;-74
2022/02/06 10:14:02;;;;;;;0.87;0.40;;;7.70;99.90;;;;;;5069583;28;20242;-74
2022/02/06 10:16:30;;;;;;;0.73;0.50;;;7.70;99.90;;;;;;5069716;28;20332;-73
2022/02/06 10:18:57;;;;;;;0.30;0.30;;;7.70;99.90;;;;;;5064454;28;20251;-73
2022/02/06 10:21:31;;;;;;;0.70;0.60;;;7.80;20.30;;;;;;5068044;28;20206;-74
2022/02/06 10:24:05;;;;;;;0.50;0.50;;;7.70;92.30;;;;;;5062304;28;20293;-73
2022/02/06 10:26:39;;;;;;;0.60;0.50;;;7.70;1.00;;;;;;5065711;28;20197;-74
2022/02/06 10:29:24;;;;;;;0.70;0.37;;;7.70;99.90;;;;;;5065124;28;20212;-73
2022/02/06 10:31:54;;;;;;;0.60;0.40;;;7.70;99.90;;;;;;5068100;28;20206;-74
2022/02/06 10:34:23;;;;;;;0.43;0.30;;;7.70;99.90;;;;;;5066260;28;20297;-74
2022/02/06 10:36:51;;;;;;;0.90;0.33;;;7.70;1.00;;;;;;5067062;28;20224;-74
2022/02/06 10:39:24;;;;;;;0.50;0.50;;;7.70;1.00;;;;;;5067603;28;20240;-73
2022/02/06 10:41:52;;;;;;;0.20;0.20;;;7.70;18.20;;;;;;5068579;28;20625;-73
2022/02/06 10:44:20;;;;;;;0.40;0.30;;;7.70;99.90;;;;;;5067218;28;20210;-73
2022/02/06 10:46:53;;;;;;;0.70;0.60;;;7.70;99.90;;;;;;5069611;28;20210;-73
2022/02/06 10:49:22;;;;;;;0.40;0.37;;;7.70;1.00;;;;;;5065397;28;20287;-74
2022/02/06 10:51:51;;;;;;;0.63;0.30;;;7.70;1.00;;;;;;5068156;28;20214;-74
2022/02/06 10:54:25;;;;;;;0.57;0.40;;;7.70;15.70;;;;;;5069308;28;20246;-73
2022/02/06 10:57:02;;;;;;;0.40;0.33;;;7.70;1.00;;;;;;5069227;28;20665;-73
2022/02/06 10:59:37;;;;;;;0.97;0.67;;;7.70;1.00;;;;;;5066858;28;20198;-73
2022/02/06 11:02:07;;;;;;;0.60;0.40;;;7.70;1.00;;;;;;5065739;28;20738;-73
2022/02/06 11:04:36;;;;;;;0.30;0.30;;;7.70;99.90;;;;;;5067360;28;20608;-73
2022/02/06 11:07:15;;;;;;;0.43;0.37;;;7.70;1.00;;;;;;5068252;28;20259;-73
2022/02/06 11:09:43;;;;;;;0.50;0.20;;;7.70;1.00;;;;;;5066865;28;20568;-73
2022/02/06 11:12:17;;;;;;;0.30;0.30;;;7.60;1.00;;;;;;5068266;28;20209;-73
2022/02/06 11:14:50;;;;;;;0.20;0.20;;;7.70;1.00;;;;;;5067935;28;20209;-73
2022/02/06 11:17:20;;;;;;;0.20;0.20;;;7.70;1.00;;;;;;5067346;28;20223;-73
2022/02/06 11:20:01;;;;;;;0.20;0.20;;;7.70;1.00;;;;;;5065582;28;20575;-73
2022/02/06 11:22:29;;;;;;;0.30;0.20;;;7.70;1.00;;;;;;5067574;28;20206;-73
2022/02/06 11:24:56;;;;;;;0.80;0.40;;;7.70;1.00;;;;;;5063358;28;20198;-73
2022/02/06 11:27:27;;;;;;;0.20;0.20;;;7.80;1.00;;;;;;5068312;28;20195;-72
2022/02/06 11:29:54;;;;;;;0.30;0.30;;;7.70;99.90;;;;;;5069129;28;20212;-70
2022/02/06 11:32:23;;;;;;;0.27;0.20;;;7.80;1.00;;;;;;5063895;28;20201;-70
2022/02/06 11:34:50;;;;;;;0.10;0.10;;;7.80;1.00;;;;;;5066790;28;20595;-70
2022/02/06 11:46:15;;;;;;;0.30;0.27;;;7.90;1.00;;;;;;5064361;28;20213;-70
2022/02/06 11:48:44;;;;;;;1.60;0.70;;;7.90;32.20;;;;;;5065930;28;20679;-70
2022/02/06 11:51:15;;;;;;;1.47;0.27;;;8.00;1.00;;;;;;5064349;28;20198;-70
2022/02/06 11:53:42;;;;;;;1.33;0.20;;;7.90;1.00;;;;;;5065612;28;20259;-70
2022/02/06 11:56:32;;;;;;;0.10;0.10;;;7.90;29.10;;;;;;5065578;28;20584;-70
2022/02/06 11:59:08;;;;;;;0.10;0.10;;;7.90;99.90;;;;;;5062178;28;20230;-70
2022/02/06 12:01:35;;;;;;;0.00;0.00;;;7.90;99.40;;;;;;5066845;28;20636;-70
2022/02/06 12:04:05;;;;;;;0.10;0.10;;;7.90;1.00;;;;;;5068810;28;20202;-70
2022/02/06 12:06:57;;;;;;;0.10;0.10;;;7.90;1.00;;;;;;5065257;28;20260;-70
2022/02/06 12:09:28;;;;;;;0.17;0.13;;;7.80;99.90;;;;;;5067252;28;20202;-70
2022/02/06 12:12:20;;;;;;;0.10;0.10;;;7.80;99.90;;;;;;5064250;28;20659;-70
2022/02/06 12:15:09;;;;;;;0.20;0.17;;;7.70;1.00;;;;;;5066885;28;20671;-69
2022/02/06 12:18:05;;;;;;;0.13;0.10;;;7.70;99.90;;;;;;5066985;28;20572;-70
2022/02/06 12:20:48;;;;;;;0.10;0.07;;;7.70;1.00;;;;;;5064514;28;20259;-69
2022/02/06 12:23:35;;;;;;;0.20;0.20;;;7.70;69.70;;;;;;5061944;28;20214;-70
2022/02/06 12:26:03;;;;;;;0.00;0.00;;;7.60;1.00;;;;;;5064729;28;20202;-70
2022/02/06 12:28:40;;;;;;;0.10;0.10;;;7.60;1.00;;;;;;5063611;28;20198;-70
2022/02/06 12:31:28;;;;;;;0.67;0.60;;;7.60;1.00;;;;;;5062952;28;20201;-69
2022/02/06 12:34:09;;;;;;;1.53;0.93;;;7.60;1.00;;;;;;5064156;28;20212;-70
2022/02/06 12:37:07;;;;;;;0.63;0.20;;;7.60;1.00;;;;;;5065821;28;20206;-70
2022/02/06 12:39:36;;;;;;;0.30;0.23;;;7.60;1.00;;;;;;5062528;28;20206;-69
2022/02/06 12:42:07;;;;;;;0.13;0.13;;;7.60;1.00;;;;;;5065502;28;20289;-69
2022/02/06 12:44:36;;;;;;;0.10;0.10;;;7.60;1.00;;;;;;5065213;28;20290;-70
2022/02/06 12:47:12;;;;;;;0.27;0.27;;;7.50;1.00;;;;;;5066240;28;20210;-70
2022/02/06 12:49:41;;;;;;;0.10;0.10;;;7.50;1.00;;;;;;5065683;28;20202;-70
2022/02/06 12:52:09;;;;;;;0.27;0.27;;;7.50;1.00;;;;;;5065832;28;20253;-69
2022/02/06 12:54:36;;;;;;;0.10;0.10;;;7.50;1.00;;;;;;5067536;28;20562;-70
2022/02/06 12:57:03;;;;;;;0.43;0.10;;;7.50;1.00;;;;;;5062882;28;20207;-70
2022/02/06 12:59:32;;;;;;;0.10;0.10;;;7.50;1.00;;;;;;5064499;28;20213;-69
2022/02/06 13:02:00;;;;;;;0.20;0.20;;;7.40;99.90;;;;;;5063392;28;20297;-70
2022/02/06 13:04:32;;;;;;;0.27;0.10;;;7.40;1.00;;;;;;5063106;28;20660;-69
2022/02/06 13:07:03;;;;;;;0.00;0.00;;;7.40;1.00;;;;;;5061646;28;20213;-70
2022/02/06 13:09:35;;;;;;;0.07;0.07;;;7.30;1.00;;;;;;5060881;28;20290;-70
2022/02/06 13:12:09;;;;;;;0.10;0.10;;;7.30;99.90;;;;;;5065688;28;20297;-70
2022/02/06 13:14:55;;;;;;;0.10;0.10;;;7.30;1.00;;;;;;5064801;28;20229;-70
2022/02/06 13:17:37;;;;;;;0.43;0.20;;;7.30;99.90;;;;;;5065095;28;20248;-70
2022/02/06 13:20:20;;;;;;;0.40;0.10;;;7.20;1.00;;;;;;5063603;28;20209;-70
2022/02/06 13:22:55;;;;;;;1.03;0.20;;;7.20;99.90;;;;;;5064972;28;20473;-70
2022/02/06 13:31:16;;;;;;;0.10;0.10;;;7.10;1.00;;;;;;5067843;28;20258;-70
2022/02/06 13:33:54;;;;;;;0.10;0.10;;;7.10;99.90;;;;;;5066302;28;20214;-70
2022/02/06 13:36:34;;;;;;;1.57;0.20;;;7.10;1.00;;;;;;5066655;28;20242;-69
2022/02/06 13:39:05;;;;;;;1.30;0.20;;;7.10;99.90;;;;;;5062232;28;20232;-70
2022/02/06 13:41:32;;;;;;;0.63;0.20;;;7.10;1.00;;;;;;5070001;28;20660;-70
2022/02/06 13:44:00;;;;;;;0.40;0.20;;;7.10;1.00;;;;;;5070744;28;20214;-70
2022/02/06 13:46:29;;;;;;;0.20;0.20;;;7.00;1.00;;;;;;5068149;28;20559;-68
2022/02/06 13:48:57;;;;;;;0.30;0.20;;;7.10;1.00;;;;;;5065251;28;20722;-70
2022/02/06 13:51:28;;;;;;;0.40;0.13;;;7.00;99.90;;;;;;5070314;28;20205;-70
2022/02/06 13:53:57;;;;;;;0.63;0.13;;;7.10;99.90;;;;;;5069029;28;20210;-68
2022/02/06 13:56:25;;;;;;;0.20;0.10;;;7.00;1.00;;;;;;5071029;28;20656;-70
2022/02/06 13:59:03;;;;;;;0.20;0.13;;;7.00;1.00;;;;;;5071779;28;20299;-70
2022/02/06 14:01:42;;;;;;;0.10;0.10;;;7.00;1.00;;;;;;5069482;28;20202;-70
2022/02/06 14:04:20;;;;;;;1.20;0.30;;;7.00;1.00;;;;;;5071273;28;20687;-71
2022/02/06 14:06:54;;;;;;;0.33;0.30;;;7.00;1.00;;;;;;5070672;28;20264;-70
2022/02/06 14:09:29;;;;;;;0.30;0.20;;;6.90;99.90;;;;;;5064646;28;20293;-68
2022/02/06 14:12:03;;;;;;;0.13;0.10;;;6.90;99.90;;;;;;5064443;28;20209;-68
2022/02/06 14:14:33;;;;;;;0.93;0.30;;;6.80;99.90;;;;;;5066558;28;20673;-67
2022/02/06 14:17:00;;;;;;;0.90;0.20;;;6.70;99.90;;;;;;5067326;28;20223;-67
2022/02/06 14:19:35;;;;;;;0.43;0.30;;;6.80;99.90;;;;;;5058479;28;20214;-68
2022/02/06 14:22:04;;;;;;;1.33;0.80;;;6.80;99.90;;;;;;5060699;28;20618;-67
2022/02/06 14:24:47;;;;;;;2.10;1.20;;;6.80;99.90;;;;;;5069368;28;20255;-68
2022/02/06 14:27:15;;;;;;;1.90;0.73;;;6.80;99.90;;;;;;5059739;28;20260;-67
2022/02/06 14:30:08;;;;;;;1.23;1.10;;;6.70;1.00;;;;;;5065179;28;20640;-67
2022/02/06 14:32:35;;;;;;;3.73;2.10;;;6.70;1.00;;;;;;5064108;28;20206;-67
2022/02/06 14:35:10;;;;;;;2.10;1.00;;;6.70;1.00;;;;;;5067555;28;20198;-67
2022/02/06 14:37:47;;;;;;;1.23;0.90;;;6.60;1.00;;;;;;5067596;28;20224;-68
2022/02/06 14:40:30;;;;;;;2.67;1.30;;;6.40;1.00;;;;;;5066219;28;20297;-68
2022/02/06 14:43:04;;;;;;;1.17;1.03;;;6.20;1.00;;;;;;5063868;28;20301;-68
2022/02/06 14:45:32;;;;;;;5.67;1.90;;;6.00;1.00;;;;;;5062314;28;20222;-68
2022/02/06 14:47:59;;;;;;;0.53;0.30;;;5.90;1.00;;;;;;5066252;28;20218;-68
2022/02/06 14:50:27;;;;;;;1.80;1.53;;;5.80;1.00;;;;;;5065627;28;20191;-73
2022/02/06 14:52:56;;;;;;;1.77;1.10;;;5.80;1.00;;;;;;5064869;28;20293;-73
2022/02/06 14:55:23;;;;;;;2.80;1.50;;;5.70;1.00;;;;;;5067326;28;20203;-73